Wes Sellars — WDF9302 — position and weather

sailwx.info

Track history (hours):
 
Tides and Currents Weather Stations Pressure Air Temp Water Temp Dewpoint Dewpoint Depression Visibility Wind Speed Wind Dir Waves Ship Positions

Wes Sellars

Owner: Florida Marine, LLC, Mandeville, LA. More information available from US FCC via Universal Licensing System and Coast Guard Vessel Documentation Center.

Last reported at 2015-Mar-21 01:33 UTC. Time now 2015-Mar-29 20:52 UTC.
Position N 29°23' W 094°53'.
Warning: this ship's position is 8 days out of date.

Length 27 m.

Type: Towing. MMSI: 367503760.

Date/timePositionNaut miles runAvg speedWind from/ knotsBaromVisibWave heightAir tempDewpointWater temp
2015-Mar-21 01:33N 29°23' W 094°53'3 3.5
2015-Mar-21 00:33N 29°23' W 094°49'6 6.0
2015-Mar-20 23:33N 29°29' W 094°52'6 6.2
2015-Mar-20 22:33N 29°34' W 094°55'6 5.9
2015-Mar-20 21:33N 29°39' W 094°58'6 6.3
2015-Mar-20 20:33N 29°44' W 095°03'2 2.1
2015-Mar-20 19:23N 29°46' W 095°05'0 0.0
2015-Mar-20 18:33N 29°46' W 095°05'0 0.0
2015-Mar-20 17:33N 29°46' W 095°05'0 0.0
2015-Mar-20 16:33N 29°46' W 095°05'0 0.0
2015-Mar-20 15:33N 29°46' W 095°05'0 0.0
2015-Mar-20 14:33N 29°46' W 095°05'0 0.0
2015-Mar-20 13:33N 29°46' W 095°05'0 0.0
2015-Mar-20 09:30N 29°46' W 095°05'0 0.0
2015-Mar-20 08:33N 29°46' W 095°05'2 1.7
2015-Mar-20 07:33N 29°45' W 095°06'6 0.4
2015-Mar-19 15:33N 29°44' W 095°12'0 0.0
2015-Mar-19 14:33N 29°44' W 095°12'0 0.0
2015-Mar-19 13:33N 29°44' W 095°12'0 0.0
2015-Mar-18 17:33N 29°44' W 095°12'0 0.0
2015-Mar-18 16:33N 29°44' W 095°12'0 0.0
2015-Mar-18 15:33N 29°44' W 095°12'0 0.0
2015-Mar-18 14:33N 29°44' W 095°12'0 0.0
2015-Mar-18 13:33N 29°44' W 095°12'0 0.0
2015-Mar-18 07:10N 29°44' W 095°12'0 0.0
2015-Mar-18 06:32N 29°44' W 095°12'0 0.0
2015-Mar-18 05:24N 29°44' W 095°12'0 0.0
2015-Mar-18 04:25N 29°44' W 095°12'0 0.0
2015-Mar-18 03:31N 29°44' W 095°12'0 0.0
2015-Mar-18 02:12N 29°44' W 095°12'0 0.0
2015-Mar-17 23:09N 29°44' W 095°12'0 0.0
2015-Mar-17 22:32N 29°44' W 095°12'0 0.0
2015-Mar-17 21:11N 29°44' W 095°12'0 0.0
2015-Mar-17 20:24N 29°44' W 095°12'0 0.2
2015-Mar-17 19:33N 29°44' W 095°12'0 0.0
2015-Mar-17 18:33N 29°44' W 095°12'0 0.0
2015-Mar-17 17:33N 29°44' W 095°12'0 0.0
2015-Mar-17 16:34N 29°44' W 095°12'0 0.0
2015-Mar-17 15:33N 29°44' W 095°12'0 0.0
2015-Mar-17 14:33N 29°44' W 095°12'0 0.0
2015-Mar-17 13:33N 29°44' W 095°12'2 0.2
2015-Mar-17 06:05N 29°45' W 095°11'4 7.1
2015-Mar-17 05:29N 29°45' W 095°06'3 2.8
2015-Mar-17 04:33N 29°47' W 095°04'0 0.0
2015-Mar-17 03:32N 29°47' W 095°04'0 0.0
2015-Mar-17 02:33N 29°47' W 095°04'2 2.3
2015-Mar-17 01:33N 29°46' W 095°06'0 0.0
2015-Mar-17 00:33N 29°46' W 095°06'0 0.0
2015-Mar-16 23:33N 29°46' W 095°06'0 0.0
2015-Mar-16 22:26N 29°46' W 095°06'0 0.0
2015-Mar-16 21:22N 29°46' W 095°06'0 0.0
2015-Mar-16 20:33N 29°46' W 095°06'0 0.0
2015-Mar-16 19:33N 29°46' W 095°06'0 0.0
2015-Mar-16 18:33N 29°46' W 095°06'0 0.0
2015-Mar-16 17:33N 29°46' W 095°06'0 0.0
2015-Mar-16 16:27N 29°46' W 095°06'0 0.0
2015-Mar-16 15:32N 29°46' W 095°06'0 0.0
2015-Mar-16 14:33N 29°46' W 095°06'0 0.0
2015-Mar-16 13:33N 29°46' W 095°06'0 0.0
2015-Mar-16 10:25N 29°46' W 095°06'2 2.3
2015-Mar-16 09:33N 29°47' W 095°04'0 0.0
2015-Mar-16 08:33N 29°47' W 095°04'2 2.4
2015-Mar-16 07:33N 29°46' W 095°06'1 0.1
2015-Mar-16 02:17N 29°46' W 095°07'0 0.0
2015-Mar-16 01:31N 29°46' W 095°07'0 0.0
2015-Mar-16 00:24N 29°46' W 095°07'0 0.0
2015-Mar-15 21:09N 29°46' W 095°07'0 0.0
2015-Mar-15 20:28N 29°46' W 095°07'0 0.0
2015-Mar-15 19:29N 29°46' W 095°07'0 0.0
2015-Mar-15 18:14N 29°46' W 095°07'0 0.0
2015-Mar-15 16:33N 29°46' W 095°07'0 0.0
2015-Mar-15 15:33N 29°46' W 095°07'0 0.0
2015-Mar-15 14:33N 29°46' W 095°07'0 0.0
2015-Mar-15 13:33N 29°46' W 095°07'0 0.0
2015-Mar-15 12:33N 29°46' W 095°07'0 0.0
2015-Mar-15 11:33N 29°46' W 095°07'0 0.0
2015-Mar-15 10:33N 29°46' W 095°07'0 0.0
2015-Mar-15 09:33N 29°46' W 095°07'0 0.0
2015-Mar-15 08:33N 29°46' W 095°07'0 0.0
2015-Mar-15 07:33N 29°46' W 095°07'2 1.9
2015-Mar-15 06:33N 29°47' W 095°05'1 1.0
2015-Mar-15 05:33N 29°46' W 095°04'6 6.1
2015-Mar-15 04:33N 29°42' W 094°59'8 7.7
2015-Mar-15 03:33N 29°35' W 094°56'8 7.8
2015-Mar-15 02:28N 29°27' W 094°51'6 6.3
2015-Mar-15 01:33N 29°23' W 094°47'7 5.3
2015-Mar-15 00:13N 29°27' W 094°41'1 0.1
2015-Mar-14 14:17N 29°28' W 094°40'0 0.0
2015-Mar-14 13:14N 29°28' W 094°40'0 0.0
2015-Mar-14 12:32N 29°28' W 094°40'  
Track history (hours):
 
Tides and Currents Weather Stations Pressure Air Temp Water Temp Dewpoint Dewpoint Depression Visibility Wind Speed Wind Dir Waves Ship Positions

Wes Sellars

Owner: Florida Marine, LLC, Mandeville, LA. More information available from US FCC via Universal Licensing System and Coast Guard Vessel Documentation Center.

Last reported at 2015-Mar-21 01:33 UTC. Time now 2015-Mar-29 20:52 UTC.
Position N 29°23' W 094°53'.
Warning: this ship's position is 8 days out of date.

Length 27 m.

Type: Towing. MMSI: 367503760.

Date/timePositionNaut miles runAvg speedWind from/ knotsBaromVisibWave heightAir tempDewpointWater temp
2015-Mar-21 01:33N 29°23' W 094°53'3 3.5
2015-Mar-21 00:33N 29°23' W 094°49'6 6.0
2015-Mar-20 23:33N 29°29' W 094°52'6 6.2
2015-Mar-20 22:33N 29°34' W 094°55'6 5.9
2015-Mar-20 21:33N 29°39' W 094°58'6 6.3
2015-Mar-20 20:33N 29°44' W 095°03'2 2.1
2015-Mar-20 19:23N 29°46' W 095°05'0 0.0
2015-Mar-20 18:33N 29°46' W 095°05'0 0.0
2015-Mar-20 17:33N 29°46' W 095°05'0 0.0
2015-Mar-20 16:33N 29°46' W 095°05'0 0.0
2015-Mar-20 15:33N 29°46' W 095°05'0 0.0
2015-Mar-20 14:33N 29°46' W 095°05'0 0.0
2015-Mar-20 13:33N 29°46' W 095°05'0 0.0
2015-Mar-20 09:30N 29°46' W 095°05'0 0.0
2015-Mar-20 08:33N 29°46' W 095°05'2 1.7
2015-Mar-20 07:33N 29°45' W 095°06'6 0.4
2015-Mar-19 15:33N 29°44' W 095°12'0 0.0
2015-Mar-19 14:33N 29°44' W 095°12'0 0.0
2015-Mar-19 13:33N 29°44' W 095°12'0 0.0
2015-Mar-18 17:33N 29°44' W 095°12'0 0.0
2015-Mar-18 16:33N 29°44' W 095°12'0 0.0
2015-Mar-18 15:33N 29°44' W 095°12'0 0.0
2015-Mar-18 14:33N 29°44' W 095°12'0 0.0
2015-Mar-18 13:33N 29°44' W 095°12'0 0.0
2015-Mar-18 07:10N 29°44' W 095°12'0 0.0
2015-Mar-18 06:32N 29°44' W 095°12'0 0.0
2015-Mar-18 05:24N 29°44' W 095°12'0 0.0
2015-Mar-18 04:25N 29°44' W 095°12'0 0.0
2015-Mar-18 03:31N 29°44' W 095°12'0 0.0
2015-Mar-18 02:12N 29°44' W 095°12'0 0.0
2015-Mar-17 23:09N 29°44' W 095°12'0 0.0
2015-Mar-17 22:32N 29°44' W 095°12'0 0.0
2015-Mar-17 21:11N 29°44' W 095°12'0 0.0
2015-Mar-17 20:24N 29°44' W 095°12'0 0.2
2015-Mar-17 19:33N 29°44' W 095°12'0 0.0
2015-Mar-17 18:33N 29°44' W 095°12'0 0.0
2015-Mar-17 17:33N 29°44' W 095°12'0 0.0
2015-Mar-17 16:34N 29°44' W 095°12'0 0.0
2015-Mar-17 15:33N 29°44' W 095°12'0 0.0
2015-Mar-17 14:33N 29°44' W 095°12'0 0.0
2015-Mar-17 13:33N 29°44' W 095°12'2 0.2
2015-Mar-17 06:05N 29°45' W 095°11'4 7.1
2015-Mar-17 05:29N 29°45' W 095°06'3 2.8
2015-Mar-17 04:33N 29°47' W 095°04'0 0.0
2015-Mar-17 03:32N 29°47' W 095°04'0 0.0
2015-Mar-17 02:33N 29°47' W 095°04'2 2.3
2015-Mar-17 01:33N 29°46' W 095°06'0 0.0
2015-Mar-17 00:33N 29°46' W 095°06'0 0.0
2015-Mar-16 23:33N 29°46' W 095°06'0 0.0
2015-Mar-16 22:26N 29°46' W 095°06'0 0.0
2015-Mar-16 21:22N 29°46' W 095°06'0 0.0
2015-Mar-16 20:33N 29°46' W 095°06'0 0.0
2015-Mar-16 19:33N 29°46' W 095°06'0 0.0
2015-Mar-16 18:33N 29°46' W 095°06'0 0.0
2015-Mar-16 17:33N 29°46' W 095°06'0 0.0
2015-Mar-16 16:27N 29°46' W 095°06'0 0.0
2015-Mar-16 15:32N 29°46' W 095°06'0 0.0
2015-Mar-16 14:33N 29°46' W 095°06'0 0.0
2015-Mar-16 13:33N 29°46' W 095°06'0 0.0
2015-Mar-16 10:25N 29°46' W 095°06'2 2.3
2015-Mar-16 09:33N 29°47' W 095°04'0 0.0
2015-Mar-16 08:33N 29°47' W 095°04'2 2.4
2015-Mar-16 07:33N 29°46' W 095°06'1 0.1
2015-Mar-16 02:17N 29°46' W 095°07'0 0.0
2015-Mar-16 01:31N 29°46' W 095°07'0 0.0
2015-Mar-16 00:24N 29°46' W 095°07'0 0.0
2015-Mar-15 21:09N 29°46' W 095°07'0 0.0
2015-Mar-15 20:28N 29°46' W 095°07'0 0.0
2015-Mar-15 19:29N 29°46' W 095°07'0 0.0
2015-Mar-15 18:14N 29°46' W 095°07'0 0.0
2015-Mar-15 16:33N 29°46' W 095°07'0 0.0
2015-Mar-15 15:33N 29°46' W 095°07'0 0.0
2015-Mar-15 14:33N 29°46' W 095°07'0 0.0
2015-Mar-15 13:33N 29°46' W 095°07'0 0.0
2015-Mar-15 12:33N 29°46' W 095°07'0 0.0
2015-Mar-15 11:33N 29°46' W 095°07'0 0.0
2015-Mar-15 10:33N 29°46' W 095°07'0 0.0
2015-Mar-15 09:33N 29°46' W 095°07'0 0.0
2015-Mar-15 08:33N 29°46' W 095°07'0 0.0
2015-Mar-15 07:33N 29°46' W 095°07'2 1.9
2015-Mar-15 06:33N 29°47' W 095°05'1 1.0
2015-Mar-15 05:33N 29°46' W 095°04'6 6.1
2015-Mar-15 04:33N 29°42' W 094°59'8 7.7
2015-Mar-15 03:33N 29°35' W 094°56'8 7.8
2015-Mar-15 02:28N 29°27' W 094°51'6 6.3
2015-Mar-15 01:33N 29°23' W 094°47'7 5.3
2015-Mar-15 00:13N 29°27' W 094°41'1 0.1
2015-Mar-14 14:17N 29°28' W 094°40'0 0.0
2015-Mar-14 13:14N 29°28' W 094°40'0 0.0
2015-Mar-14 12:32N 29°28' W 094°40'  

Dump ship's entire track history